Time;durP1;ratioP1;P1;durP2;ratioP2;P2;SDS_P1;SDS_P2;PMS_P1;PMS_P2;Temp;Humidity;BMP_temperature;BMP_pressure;BME280_temperature;BME280_humidity;BME280_pressure;Samples;Min_cycle;Max_cycle;Signal;HPM_P1;HPM_P2
2022/01/30 00:02:00;;;;;;;3.43;1.93;;;;;;;-0.31;66.75;95551.05;1770317;81;21454;-76
2022/01/30 00:04:27;;;;;;;4.17;1.53;;;;;;;-0.31;67.01;95546.73;1758383;81;21083;-77
2022/01/30 00:06:53;;;;;;;7.20;3.23;;;;;;;-0.27;66.91;95525.22;1751940;82;21608;-77
2022/01/30 00:09:22;;;;;;;5.73;3.10;;;;;;;-0.26;67.21;95506.64;1762194;81;21044;-77
2022/01/30 00:11:54;;;;;;;4.67;2.83;;;;;;;-0.20;66.70;95505.89;1751911;81;20998;-77
2022/01/30 00:14:19;;;;;;;2.60;1.33;;;;;;;-0.16;66.86;95493.03;1750966;82;21073;-77
2022/01/30 00:16:46;;;;;;;2.80;1.07;;;;;;;-0.11;66.73;95486.22;1762559;81;21008;-77
2022/01/30 00:19:23;;;;;;;4.03;1.60;;;;;;;-0.07;67.08;95471.19;1751938;81;21026;-77
2022/01/30 00:21:49;;;;;;;3.27;2.07;;;;;;;0.00;66.90;95476.09;1750653;82;21551;-77
2022/01/30 00:24:25;;;;;;;3.80;1.43;;;;;;;0.00;67.11;95470.90;1751302;82;21005;-77
2022/01/30 00:26:46;;;;;;;1.70;1.30;;;;;;;0.07;66.79;95463.66;1749968;82;21480;-77
2022/01/30 00:29:12;;;;;;;2.60;1.40;;;;;;;0.12;67.25;95462.46;1751776;82;21014;-77
2022/01/30 00:31:39;;;;;;;2.57;1.00;;;;;;;0.17;66.79;95472.50;1751957;81;21130;-77
2022/01/30 00:34:06;;;;;;;3.37;1.10;;;;;;;0.14;67.84;95454.29;1751845;82;21062;-77
2022/01/30 00:36:32;;;;;;;3.97;2.00;;;;;;;0.17;67.35;95457.80;1751822;81;20995;-77
2022/01/30 00:39:01;;;;;;;0.90;0.50;;;;;;;0.20;67.38;95436.23;1752069;82;21539;-77
2022/01/30 00:41:27;;;;;;;3.80;1.17;;;;;;;0.23;67.61;95440.60;1751894;82;21022;-77
2022/01/30 00:43:54;;;;;;;0.53;0.23;;;;;;;0.37;67.26;95440.01;1751817;81;21022;-77
2022/01/30 00:46:21;;;;;;;1.17;0.80;;;;;;;0.52;67.08;95432.05;1751884;81;21480;-77
2022/01/30 00:48:47;;;;;;;1.10;0.70;;;;;;;0.55;67.83;95443.34;1751948;82;21461;-77
2022/01/30 00:51:17;;;;;;;1.23;0.87;;;;;;;0.53;67.08;95430.80;1751953;81;21009;-77
2022/01/30 00:53:44;;;;;;;3.27;1.60;;;;;;;0.56;66.84;95424.34;1751800;82;21492;-77
2022/01/30 00:56:12;;;;;;;0.70;0.50;;;;;;;0.57;67.56;95410.94;1751820;81;21528;-77
2022/01/30 00:58:38;;;;;;;1.30;0.80;;;;;;;0.59;67.23;95402.33;1722474;82;21042;-78
2022/01/30 01:01:05;;;;;;;8.60;3.53;;;;;;;0.61;67.06;95390.25;1751459;81;21026;-78
2022/01/30 01:03:31;;;;;;;4.10;2.00;;;;;;;0.59;67.27;95371.59;1752972;81;20986;-78
2022/01/30 01:05:59;;;;;;;0.20;0.20;;;;;;;0.59;67.57;95365.11;1770274;81;20997;-77
2022/01/30 01:08:48;;;;;;;2.17;0.90;;;;;;;0.64;67.31;95370.81;1738994;81;21467;-78
2022/01/30 01:11:15;;;;;;;10.63;3.87;;;;;;;0.66;67.66;95357.88;1766770;81;21515;-78
2022/01/30 01:13:56;;;;;;;7.63;3.87;;;;;;;0.66;67.62;95347.48;1764925;81;21005;-78
2022/01/30 01:24:04;;;;;;;0.30;0.23;;;;;;;0.61;68.57;95340.92;1767981;81;20974;-77
2022/01/30 01:26:28;;;;;;;0.20;0.20;;;;;;;0.67;67.95;95331.48;1765816;81;21009;-77
2022/01/30 01:28:55;;;;;;;0.10;0.10;;;;;;;0.77;67.65;95330.76;1768005;81;21069;-78
2022/01/30 01:31:22;;;;;;;0.10;0.10;;;;;;;0.82;67.25;95320.02;1770381;81;21466;-77
2022/01/30 01:36:24;;;;;;;0.10;0.10;;;;;;;0.94;67.02;95312.83;1770311;81;21514;-77
2022/01/30 01:38:51;;;;;;;0.30;0.20;;;;;;;0.98;66.74;95305.11;1768059;81;21010;-77
2022/01/30 01:41:21;;;;;;;1.03;0.30;;;;;;;1.01;66.88;95275.27;1770396;81;20988;-77
2022/01/30 01:43:49;;;;;;;0.67;0.27;;;;;;;0.99;67.38;95287.78;1750964;82;21031;-78
2022/01/30 01:46:23;;;;;;;2.67;0.37;;;;;;;1.00;67.47;95287.78;1770335;81;21016;-77
2022/01/30 01:48:50;;;;;;;1.63;0.60;;;;;;;1.03;67.57;95260.97;1767570;81;21057;-77
2022/01/30 01:51:21;;;;;;;1.30;0.50;;;;;;;1.02;67.73;95248.41;1770343;81;21012;-77
2022/01/30 01:53:50;;;;;;;1.43;0.50;;;;;;;1.00;67.60;95235.83;1766599;81;21089;-77
2022/01/30 01:56:18;;;;;;;0.73;0.53;;;;;;;0.95;67.92;95245.72;1770361;81;21474;-77
2022/01/30 01:58:47;;;;;;;0.77;0.60;;;;;;;0.91;68.18;95234.44;1767183;81;21045;-77
2022/01/30 02:01:26;;;;;;;1.13;0.97;;;;;;;0.90;68.40;95213.63;1675647;85;20993;-77
2022/01/30 02:03:54;;;;;;;1.03;0.63;;;;;;;0.92;68.50;95182.91;1737762;82;21024;-77
2022/01/30 02:06:24;;;;;;;1.30;0.70;;;;;;;0.92;67.82;95191.14;1748455;82;21484;-77
2022/01/30 02:09:04;;;;;;;1.83;0.67;;;;;;;0.98;67.32;95183.41;1741197;81;20997;-77
2022/01/30 02:27:23;;;;;;;3.83;1.10;;;;;;;1.30;65.83;95101.45;1723356;82;21050;-78
2022/01/30 02:29:49;;;;;;;3.27;0.60;;;;;;;1.29;65.93;95104.06;1751508;82;21081;-78
2022/01/30 02:32:16;;;;;;;1.70;0.77;;;;;;;1.21;66.82;95087.11;1751898;81;21507;-78
2022/01/30 02:34:43;;;;;;;1.93;0.73;;;;;;;1.23;66.39;95076.27;1751786;82;21090;-77
2022/01/30 02:37:12;;;;;;;3.37;1.00;;;;;;;1.25;66.29;95069.80;1751819;81;21042;-78
2022/01/30 02:39:39;;;;;;;1.10;0.63;;;;;;;1.27;66.19;95084.55;1751503;81;21081;-77
2022/01/30 02:54:57;;;;;;;0.90;0.60;;;;;;;1.75;66.28;95056.75;1857858;77;22947;-76
2022/01/30 02:57:23;;;;;;;2.80;0.87;;;;;;;1.59;67.04;95069.66;1826943;78;20946;-75
2022/01/30 02:59:50;;;;;;;1.53;0.87;;;;;;;1.48;67.02;95063.05;1826800;78;21514;-76
2022/01/30 03:02:17;;;;;;;1.13;0.70;;;;;;;1.42;67.04;95063.45;1827087;78;21001;-75
2022/01/30 03:04:44;;;;;;;1.43;0.60;;;;;;;1.34;67.20;95059.92;1826818;78;21010;-76
2022/01/30 03:07:10;;;;;;;1.67;0.90;;;;;;;1.27;67.45;95031.27;1826763;78;20998;-76
2022/01/30 03:09:42;;;;;;;3.20;0.67;;;;;;;1.28;67.75;95033.00;1824892;78;21029;-78
2022/01/30 03:12:09;;;;;;;0.80;0.50;;;;;;;1.20;69.35;95020.38;1826755;78;21002;-78
2022/01/30 03:14:36;;;;;;;0.93;0.50;;;;;;;1.14;70.20;95025.54;1826837;78;21041;-78
2022/01/30 03:17:03;;;;;;;1.00;0.70;;;;;;;1.06;70.70;95015.52;1826948;78;20998;-78
2022/01/30 03:19:30;;;;;;;1.30;0.67;;;;;;;1.07;71.07;95009.02;1826763;78;21056;-78
2022/01/30 03:21:56;;;;;;;1.60;0.97;;;;;;;1.02;71.49;95021.09;1826592;78;21014;-78
2022/01/30 03:24:23;;;;;;;1.17;0.70;;;;;;;0.98;71.47;95020.66;1826904;78;20994;-78
2022/01/30 03:37:50;;;;;;;1.10;0.70;;;;;;;1.55;69.25;95022.81;1857820;77;22974;-75
2022/01/30 03:40:17;;;;;;;1.70;0.70;;;;;;;1.35;69.30;95017.03;1793678;78;20975;-75
2022/01/30 03:42:43;;;;;;;1.40;0.87;;;;;;;1.24;69.39;95033.85;1826845;78;20994;-76
2022/01/30 03:45:12;;;;;;;0.43;0.40;;;;;;;1.13;69.80;95028.98;1826830;78;21010;-77
2022/01/30 03:47:40;;;;;;;0.73;0.53;;;;;;;1.08;70.12;95025.47;1826756;78;20994;-78
2022/01/30 03:50:08;;;;;;;0.87;0.50;;;;;;;0.97;71.09;95037.51;1826948;78;20991;-77
2022/01/30 03:52:35;;;;;;;0.87;0.53;;;;;;;0.93;71.75;95041.78;1826852;78;20947;-77
2022/01/30 03:55:03;;;;;;;0.40;0.40;;;;;;;0.90;72.02;95043.50;1826743;78;21066;-78
2022/01/30 03:57:30;;;;;;;0.30;0.30;;;;;;;0.91;71.89;95063.41;1826844;78;21455;-78
2022/01/30 03:59:56;;;;;;;0.80;0.37;;;;;;;0.89;72.23;95058.65;1826818;78;21002;-77
2022/01/30 04:02:23;;;;;;;0.40;0.40;;;;;;;0.81;72.89;95065.93;1826838;78;20978;-78
2022/01/30 04:04:50;;;;;;;0.50;0.50;;;;;;;0.76;73.10;95041.64;1826752;78;21527;-78
2022/01/30 04:07:18;;;;;;;0.57;0.50;;;;;;;0.73;73.09;95040.32;1826937;78;20990;-78
2022/01/30 04:09:58;;;;;;;0.50;0.50;;;;;;;0.76;73.29;95070.64;1822619;78;21010;-78
2022/01/30 04:12:34;;;;;;;0.23;0.20;;;;;;;0.76;73.46;95074.10;1825662;78;20958;-77
2022/01/30 04:15:07;;;;;;;1.73;0.70;;;;;;;0.75;74.90;95048.11;1826436;78;21524;-78
2022/01/30 04:17:52;;;;;;;1.77;0.70;;;;;;;0.81;74.25;95070.27;1826840;78;21043;-77
2022/01/30 04:20:33;;;;;;;2.03;0.70;;;;;;;0.86;73.54;95048.67;1825826;78;21074;-77
2022/01/30 04:23:14;;;;;;;0.70;0.50;;;;;;;0.84;73.89;95048.21;1826013;78;20959;-77
2022/01/30 04:26:00;;;;;;;0.53;0.47;;;;;;;0.82;74.18;95053.38;1821659;78;21125;-77
2022/01/30 04:28:41;;;;;;;0.83;0.60;;;;;;;0.79;74.57;95044.70;1785544;78;21053;-77
2022/01/30 04:31:23;;;;;;;0.87;0.50;;;;;;;0.79;74.14;95047.30;1784396;78;21097;-77
2022/01/30 04:33:52;;;;;;;0.83;0.67;;;;;;;0.75;74.03;95031.23;1785303;78;20998;-77
2022/01/30 04:36:35;;;;;;;1.23;0.50;;;;;;;0.76;73.76;95027.36;1820980;78;21082;-77
2022/01/30 04:39:28;;;;;;;1.33;0.70;;;;;;;0.75;73.58;95012.62;1821879;78;21003;-77
2022/01/30 04:53:40;;;;;;;2.40;1.70;;;;;;;0.97;73.58;94954.39;1823819;78;21018;-77
2022/01/30 05:09:43;;;;;;;1.90;1.70;;;;;;;1.31;75.05;95004.89;1762496;78;20990;-78
2022/01/30 05:12:15;;;;;;;3.37;1.60;;;;;;;1.34;74.96;94973.72;1822814;78;21504;-77
2022/01/30 05:14:44;;;;;;;2.47;1.53;;;;;;;1.39;74.67;94943.86;1820703;78;20982;-77
2022/01/30 05:17:16;;;;;;;3.23;2.17;;;;;;;1.40;74.49;94935.19;1823209;78;21022;-77
2022/01/30 05:19:45;;;;;;;3.63;1.93;;;;;;;1.44;74.24;94920.06;1822114;78;20998;-77
2022/01/30 05:22:16;;;;;;;2.83;1.87;;;;;;;1.45;74.08;94912.25;1823343;78;21026;-78
2022/01/30 05:24:48;;;;;;;3.03;2.20;;;;;;;1.42;73.90;94913.55;1823133;78;21507;-78
2022/01/30 05:27:19;;;;;;;2.33;1.83;;;;;;;1.43;73.63;94903.57;1825056;78;21041;-78
2022/01/30 05:29:57;;;;;;;4.07;2.40;;;;;;;1.44;73.67;94901.43;1725178;83;21033;-78
2022/01/30 05:32:29;;;;;;;1.80;1.37;;;;;;;1.44;73.76;94898.83;1823359;78;21108;-78
2022/01/30 05:35:11;;;;;;;5.40;1.90;;;;;;;1.46;73.57;94891.91;1824531;78;21591;-78
2022/01/30 05:37:42;;;;;;;4.73;1.90;;;;;;;1.47;73.70;94918.34;1748317;80;21017;-77
2022/01/30 05:40:28;;;;;;;2.07;1.60;;;;;;;1.54;73.55;94903.65;1756499;82;21047;-77
2022/01/30 05:43:06;;;;;;;5.40;3.07;;;;;;;1.51;73.75;94891.51;1753053;82;21086;-77
2022/01/30 05:45:59;;;;;;;3.60;2.47;;;;;;;1.59;73.65;94924.05;1756503;82;21555;-77
2022/01/30 05:48:28;;;;;;;4.27;2.57;;;;;;;1.62;73.58;94916.69;1738418;82;21082;-77
2022/01/30 05:51:14;;;;;;;5.27;3.10;;;;;;;1.62;73.58;94923.19;1756606;82;21077;-77
2022/01/30 05:53:47;;;;;;;5.07;3.20;;;;;;;1.65;73.69;94931.00;1756320;82;21015;-77
2022/01/30 05:56:16;;;;;;;3.83;2.77;;;;;;;1.70;73.33;94936.65;1756400;82;20995;-77
2022/01/30 05:58:42;;;;;;;5.70;2.90;;;;;;;1.72;73.17;94915.42;1726867;82;20950;-77
2022/01/30 06:01:20;;;;;;;5.43;2.90;;;;;;;1.71;73.11;94901.10;1756135;82;21026;-77
2022/01/30 06:03:46;;;;;;;4.10;3.20;;;;;;;1.73;73.13;94908.05;1756810;81;21492;-77
2022/01/30 06:06:13;;;;;;;4.13;2.67;;;;;;;1.73;73.17;94904.59;1756750;82;21061;-77
2022/01/30 06:11:08;;;;;;;5.90;3.13;;;;;;;1.68;73.57;94890.26;1756817;82;21551;-77
2022/01/30 06:13:35;;;;;;;4.00;2.70;;;;;;;1.75;73.30;94898.97;1756511;82;21022;-77
2022/01/30 06:16:03;;;;;;;3.63;2.80;;;;;;;1.78;73.08;94886.41;1756566;82;20991;-77
2022/01/30 06:18:30;;;;;;;9.57;6.07;;;;;;;1.81;73.09;94898.11;1756600;82;21500;-77
2022/01/30 06:21:13;;;;;;;6.67;3.90;;;;;;;1.85;73.23;94882.97;1751351;82;21018;-77
2022/01/30 06:23:49;;;;;;;3.43;2.37;;;;;;;1.93;73.33;94888.62;1756676;82;21122;-77
2022/01/30 06:26:34;;;;;;;4.07;2.40;;;;;;;2.00;73.69;94897.77;1756705;82;21018;-77
2022/01/30 06:29:19;;;;;;;2.63;1.90;;;;;;;2.07;73.94;94883.91;1756377;82;21082;-77
2022/01/30 06:32:06;;;;;;;4.10;2.90;;;;;;;2.15;73.87;94925.98;1756743;81;21011;-77
2022/01/30 06:34:50;;;;;;;3.27;2.53;;;;;;;2.15;73.73;94912.98;1756489;82;20982;-77
2022/01/30 06:37:33;;;;;;;5.57;3.93;;;;;;;2.19;73.61;94907.33;1775050;80;20983;-77
2022/01/30 06:40:06;;;;;;;7.00;3.60;;;;;;;2.22;73.55;94929.90;1763571;81;21110;-77
2022/01/30 06:42:46;;;;;;;5.03;3.30;;;;;;;2.27;73.06;94924.27;1764475;78;21464;-77
2022/01/30 06:45:24;;;;;;;5.57;3.97;;;;;;;2.25;72.81;94930.80;1733150;83;21077;-77
2022/01/30 06:47:58;;;;;;;6.17;3.87;;;;;;;2.21;72.69;94960.27;1797222;78;21101;-76
2022/01/30 06:50:42;;;;;;;6.40;4.33;;;;;;;2.16;72.89;94945.06;1829375;78;20963;-77
2022/01/30 06:53:24;;;;;;;3.20;2.80;;;;;;;2.16;73.14;94945.06;1829618;78;21053;-77
2022/01/30 06:55:57;;;;;;;7.10;3.07;;;;;;;2.12;73.05;94921.22;1781583;78;21483;-76
2022/01/30 06:58:42;;;;;;;7.07;3.70;;;;;;;2.14;72.89;94921.66;1829359;78;21002;-77
2022/01/30 07:01:27;;;;;;;4.83;3.30;;;;;;;2.13;72.84;94930.31;1829507;78;20971;-77
2022/01/30 07:04:08;;;;;;;6.53;3.30;;;;;;;2.11;72.75;94911.66;1764561;78;21017;-77
2022/01/30 07:06:53;;;;;;;4.87;3.10;;;;;;;2.21;72.50;94913.86;1829401;78;21533;-77
2022/01/30 07:09:19;;;;;;;4.37;2.93;;;;;;;2.24;72.49;94921.66;1829739;78;21002;-77
2022/01/30 07:11:46;;;;;;;3.90;2.90;;;;;;;2.29;71.94;94908.23;1829616;78;21066;-77
2022/01/30 07:14:12;;;;;;;5.73;3.77;;;;;;;2.32;71.80;94896.11;1829568;78;21054;-77
2022/01/30 07:16:39;;;;;;;4.63;2.87;;;;;;;2.34;71.79;94894.78;1829567;78;21069;-77
2022/01/30 07:19:05;;;;;;;6.23;3.40;;;;;;;2.31;71.80;94890.44;1829583;78;21458;-77
2022/01/30 07:21:32;;;;;;;6.20;3.33;;;;;;;2.41;71.49;94934.30;1829629;78;21053;-77
2022/01/30 07:23:58;;;;;;;6.37;4.30;;;;;;;2.43;71.57;94922.59;1829736;78;21471;-77
2022/01/30 07:26:24;;;;;;;6.20;4.23;;;;;;;2.52;71.19;94927.39;1829545;78;20983;-77
2022/01/30 07:28:51;;;;;;;6.63;4.23;;;;;;;2.51;71.11;94916.52;1829632;78;21006;-77
2022/01/30 07:31:17;;;;;;;6.10;3.47;;;;;;;2.51;71.19;94915.66;1829527;78;21042;-77
2022/01/30 07:33:44;;;;;;;10.37;5.90;;;;;;;2.45;70.94;94918.27;1829681;78;20982;-77
2022/01/30 07:36:12;;;;;;;7.07;4.70;;;;;;;2.47;71.07;94893.96;1829595;78;20990;-77
2022/01/30 07:38:38;;;;;;;8.37;5.60;;;;;;;2.56;70.70;94910.02;1826473;78;21018;-77
2022/01/30 07:41:05;;;;;;;4.93;3.17;;;;;;;2.66;70.06;94900.48;1826126;78;21074;-77
2022/01/30 07:43:32;;;;;;;6.67;3.67;;;;;;;2.75;69.38;94907.01;1826079;78;21014;-76
2022/01/30 07:46:04;;;;;;;4.17;3.10;;;;;;;2.71;69.09;94885.28;1825880;78;21568;-77
2022/01/30 07:48:32;;;;;;;5.43;3.87;;;;;;;2.58;69.40;94884.85;1826116;78;20942;-77
2022/01/30 07:50:59;;;;;;;2.80;2.10;;;;;;;2.61;69.51;94890.05;1826073;78;21042;-77
2022/01/30 07:53:25;;;;;;;5.87;3.20;;;;;;;2.63;69.34;94892.67;1826103;78;20991;-77
2022/01/30 07:55:52;;;;;;;5.07;3.77;;;;;;;2.63;69.14;94884.42;1826049;78;21120;-77
2022/01/30 07:58:19;;;;;;;5.73;3.00;;;;;;;2.68;69.06;94880.52;1826228;78;20970;-77
2022/01/30 08:00:45;;;;;;;5.10;3.60;;;;;;;2.59;69.44;94874.85;1826000;78;21052;-77
2022/01/30 08:03:12;;;;;;;5.90;4.37;;;;;;;2.51;69.99;94858.37;1826104;78;21456;-77
2022/01/30 08:05:39;;;;;;;5.00;3.10;;;;;;;2.55;70.01;94864.88;1825968;78;21108;-77
2022/01/30 08:08:06;;;;;;;14.83;9.67;;;;;;;2.43;70.50;94867.47;1826008;78;20986;-77
2022/01/30 08:10:34;;;;;;;10.30;7.20;;;;;;;2.49;70.71;94862.70;1826046;78;21109;-77
2022/01/30 08:13:01;;;;;;;6.77;4.43;;;;;;;2.51;70.79;94851.86;1826253;78;21006;-76
2022/01/30 08:15:28;;;;;;;5.57;4.27;;;;;;;2.54;70.62;94858.36;1826050;78;21121;-77
2022/01/30 08:17:54;;;;;;;7.13;3.10;;;;;;;2.54;70.90;94846.64;1826337;78;20982;-77
2022/01/30 08:20:24;;;;;;;6.37;3.93;;;;;;;2.51;70.64;94852.72;1826317;78;21495;-77
2022/01/30 08:22:52;;;;;;;7.73;4.17;;;;;;;2.59;70.33;94854.02;1825973;78;21004;-77
2022/01/30 08:25:21;;;;;;;5.90;4.17;;;;;;;2.65;70.32;94864.45;1826220;78;20998;-76
2022/01/30 08:27:49;;;;;;;8.23;5.40;;;;;;;2.68;70.25;94854.47;1826364;78;20955;-77
2022/01/30 08:30:16;;;;;;;15.33;3.80;;;;;;;2.58;70.18;94864.02;1826024;78;21010;-77
2022/01/30 08:32:47;;;;;;;5.07;3.83;;;;;;;2.46;70.68;94855.75;1826320;78;21030;-76
2022/01/30 08:35:16;;;;;;;6.07;4.27;;;;;;;2.48;70.73;94858.38;1826143;78;20966;-77
2022/01/30 08:37:43;;;;;;;6.10;4.00;;;;;;;2.50;71.05;94839.28;1828347;78;21499;-77
2022/01/30 08:40:14;;;;;;;6.60;4.17;;;;;;;2.57;70.68;94855.75;1832201;78;21048;-77
2022/01/30 08:42:41;;;;;;;6.13;3.10;;;;;;;2.68;70.64;94841.45;1832040;78;21052;-77
2022/01/30 08:45:09;;;;;;;5.30;3.53;;;;;;;2.92;69.83;94821.86;1831932;78;21106;-77
2022/01/30 08:47:36;;;;;;;4.83;3.40;;;;;;;3.23;68.53;94824.42;1832161;78;21025;-77
2022/01/30 08:50:04;;;;;;;4.93;2.70;;;;;;;3.50;67.83;94819.53;1832028;78;21006;-76
2022/01/30 08:52:31;;;;;;;6.37;4.37;;;;;;;3.61;67.11;94845.59;1831990;78;21104;-77
2022/01/30 08:54:58;;;;;;;5.33;3.90;;;;;;;3.76;66.67;94827.27;1832058;78;21058;-77
2022/01/30 08:57:24;;;;;;;4.97;3.50;;;;;;;3.82;65.80;94814.17;1832005;78;21429;-77
2022/01/30 08:59:51;;;;;;;5.23;3.20;;;;;;;3.89;65.04;94804.14;1831946;78;21018;-77
2022/01/30 09:02:19;;;;;;;5.60;3.57;;;;;;;4.20;64.49;94812.22;1831970;78;21565;-77
2022/01/30 09:04:45;;;;;;;5.37;3.17;;;;;;;4.46;64.03;94808.10;1831914;78;21005;-77
2022/01/30 09:07:12;;;;;;;5.13;3.23;;;;;;;4.44;63.58;94816.42;1832156;78;20994;-78
2022/01/30 09:09:38;;;;;;;16.37;11.67;;;;;;;4.46;63.73;94812.91;1831987;78;21539;-77
2022/01/30 09:12:06;;;;;;;5.97;3.37;;;;;;;4.58;63.49;94792.78;1831917;78;21005;-77
2022/01/30 09:14:33;;;;;;;5.30;4.27;;;;;;;4.58;62.85;94796.25;1832062;78;21526;-76
2022/01/30 09:16:59;;;;;;;5.97;4.50;;;;;;;4.57;62.89;94791.92;1831864;78;21006;-77
2022/01/30 09:19:26;;;;;;;5.03;3.53;;;;;;;4.69;62.37;94786.59;1831865;78;20986;-77
2022/01/30 09:21:52;;;;;;;5.43;3.60;;;;;;;4.88;62.32;94804.71;1831958;78;21017;-77
2022/01/30 09:24:19;;;;;;;4.73;3.77;;;;;;;4.80;62.38;94803.92;1831993;78;20966;-77
2022/01/30 09:26:45;;;;;;;6.47;4.33;;;;;;;4.73;62.88;94806.57;1832007;78;21493;-77
2022/01/30 09:29:12;;;;;;;5.47;3.60;;;;;;;4.82;62.64;94806.95;1832059;78;21070;-77
2022/01/30 09:31:38;;;;;;;4.97;3.70;;;;;;;5.07;62.17;94784.50;1831796;78;21530;-77
2022/01/30 09:34:05;;;;;;;5.03;3.50;;;;;;;5.21;61.43;94792.59;1832081;78;21029;-77
2022/01/30 09:36:31;;;;;;;6.53;4.23;;;;;;;5.00;61.06;94770.61;1831949;78;21013;-76
2022/01/30 09:38:57;;;;;;;4.23;3.43;;;;;;;5.08;61.76;94782.30;1831876;78;21049;-77
2022/01/30 09:41:26;;;;;;;5.97;3.27;;;;;;;5.30;60.89;94777.26;1831898;78;21594;-76
2022/01/30 09:43:52;;;;;;;5.77;4.30;;;;;;;5.30;60.73;94771.16;1831939;78;20970;-77
2022/01/30 09:46:20;;;;;;;6.97;5.13;;;;;;;5.67;59.97;94782.06;1831827;78;20979;-76
2022/01/30 09:48:49;;;;;;;3.63;2.80;;;;;;;5.72;59.68;94795.06;1831921;78;21003;-76
2022/01/30 09:51:16;;;;;;;2.17;1.97;;;;;;;5.71;59.57;94764.55;1831951;78;21069;-76
2022/01/30 09:53:42;;;;;;;6.60;3.23;;;;;;;5.59;59.55;94770.80;1831903;78;21455;-76
2022/01/30 09:56:09;;;;;;;3.60;2.60;;;;;;;5.44;60.31;94783.62;1832046;78;21005;-76
2022/01/30 09:58:39;;;;;;;3.20;2.90;;;;;;;5.28;60.86;94778.16;1800635;78;21460;-76
2022/01/30 10:01:05;;;;;;;5.33;3.40;;;;;;;5.32;60.79;94775.95;1831857;78;20963;-77
2022/01/30 10:03:32;;;;;;;4.60;3.70;;;;;;;5.14;61.57;94775.27;1831900;78;21077;-77
2022/01/30 10:06:14;;;;;;;3.70;2.63;;;;;;;4.93;62.22;94764.56;1831999;78;20990;-77
2022/01/30 10:08:42;;;;;;;6.97;3.10;;;;;;;4.73;62.77;94779.13;1832160;78;20993;-77
2022/01/30 10:11:49;;;;;;;7.53;5.10;;;;;;;4.29;64.02;94767.33;1832025;78;21541;-77
2022/01/30 10:13:45;;;;;;;2.97;2.20;;;;;;;4.11;64.94;94777.92;1814901;78;20997;-77
2022/01/30 10:16:12;;;;;;;5.33;4.13;;;;;;;3.72;66.87;94769.44;1831766;78;21508;-77
2022/01/30 10:18:45;;;;;;;5.57;4.57;;;;;;;3.51;67.79;94782.61;1832063;78;21022;-77
2022/01/30 10:21:21;;;;;;;4.55;2.72;;;;;;;3.30;68.83;94784.44;1832227;78;21048;-77
2022/01/30 10:23:47;;;;;;;7.70;4.87;;;;;;;2.97;70.65;94794.50;1831955;78;20974;-77
2022/01/30 10:26:18;;;;;;;5.40;3.40;;;;;;;2.82;71.39;94782.36;1831840;78;21089;-77
2022/01/30 10:28:43;;;;;;;6.07;3.07;;;;;;;2.70;71.98;94791.53;1831527;78;21006;-76
2022/01/30 10:31:10;;;;;;;4.40;2.93;;;;;;;2.53;73.41;94788.94;1831791;78;20974;-77
2022/01/30 10:33:45;;;;;;;7.60;5.23;;;;;;;2.51;73.42;94788.92;1831866;78;21435;-77
2022/01/30 10:36:19;;;;;;;3.73;2.20;;;;;;;2.46;73.16;94802.37;1831863;78;21056;-76
2022/01/30 10:38:52;;;;;;;4.37;3.07;;;;;;;2.44;72.83;94789.78;1828704;78;21018;-76
2022/01/30 10:41:22;;;;;;;6.03;3.07;;;;;;;2.51;73.25;94781.55;1825439;78;21014;-76
2022/01/30 10:44:06;;;;;;;4.20;2.90;;;;;;;2.85;71.88;94789.31;1826165;78;20998;-76
2022/01/30 10:46:39;;;;;;;4.83;2.30;;;;;;;3.01;69.65;94755.84;1826013;78;21018;-77
2022/01/30 10:49:12;;;;;;;4.23;2.40;;;;;;;3.02;69.15;94781.02;1826040;78;20959;-76
2022/01/30 10:51:41;;;;;;;2.95;2.30;;;;;;;3.08;68.30;94770.59;1826345;78;21460;-76
2022/01/30 10:54:13;;;;;;;2.97;2.00;;;;;;;3.06;68.95;94759.74;1826207;78;21049;-77
2022/01/30 10:56:40;;;;;;;5.17;2.07;;;;;;;3.14;67.93;94765.79;1821218;78;21013;-76
2022/01/30 10:59:18;;;;;;;4.77;2.53;;;;;;;3.16;67.90;94758.84;1826071;78;21006;-77
2022/01/30 11:01:48;;;;;;;4.23;2.70;;;;;;;3.35;67.39;94760.51;1826108;78;21483;-77
2022/01/30 11:04:30;;;;;;;3.90;2.47;;;;;;;3.45;66.76;94750.88;1826026;78;20990;-76
2022/01/30 11:07:01;;;;;;;3.07;2.13;;;;;;;3.40;65.91;94737.89;1826139;78;21010;-77
2022/01/30 11:09:37;;;;;;;3.93;1.87;;;;;;;3.57;65.80;94726.48;1826068;78;20982;-76
2022/01/30 11:12:07;;;;;;;3.60;1.60;;;;;;;3.69;64.48;94745.54;1825894;78;21483;-77
2022/01/30 11:17:17;;;;;;;2.13;1.40;;;;;;;4.02;62.52;94731.84;1825917;78;20986;-77
2022/01/30 11:19:48;;;;;;;3.23;1.63;;;;;;;4.20;60.45;94720.84;1826072;78;21009;-77
2022/01/30 11:22:23;;;;;;;2.07;1.60;;;;;;;4.24;59.76;94734.30;1826249;78;21436;-78
2022/01/30 11:25:05;;;;;;;4.70;1.83;;;;;;;4.27;60.33;94731.66;1826252;78;21041;-77
2022/01/30 11:27:34;;;;;;;3.67;2.00;;;;;;;4.06;60.36;94732.26;1826288;78;21101;-77
2022/01/30 11:30:04;;;;;;;1.63;0.97;;;;;;;3.89;60.71;94716.71;1826249;78;21009;-77
2022/01/30 11:32:30;;;;;;;1.97;1.40;;;;;;;3.73;62.04;94711.19;1825985;78;21485;-77
2022/01/30 11:34:58;;;;;;;2.63;1.67;;;;;;;3.77;61.57;94714.62;1826059;78;21022;-77
2022/01/30 11:37:28;;;;;;;1.73;1.50;;;;;;;3.74;61.69;94707.69;1826088;78;20990;-78
2022/01/30 11:39:56;;;;;;;3.30;1.80;;;;;;;3.71;61.48;94706.41;1825693;78;21018;-78
2022/01/30 11:42:26;;;;;;;2.53;1.57;;;;;;;3.81;61.73;94687.65;1826202;78;21057;-76
2022/01/30 11:45:10;;;;;;;4.10;1.47;;;;;;;4.23;60.04;94715.14;1826114;78;21044;-76
2022/01/30 11:47:49;;;;;;;;;;;;;;;4.44;59.02;94687.13;1828780;78;20966;-77
2022/01/30 11:50:24;;;;;;;1.57;1.20;;;;;;;4.96;57.69;94674.38;1825244;78;20090;-77
2022/01/30 11:53:06;;;;;;;2.87;1.37;;;;;;;5.28;55.94;94670.47;1826246;78;20998;-77
2022/01/30 11:55:54;;;;;;;2.90;1.83;;;;;;;5.54;55.26;94671.87;1826240;78;21001;-77
2022/01/30 11:58:39;;;;;;;4.83;2.27;;;;;;;5.26;55.13;94666.15;1825090;78;21066;-76
2022/01/30 12:01:35;;;;;;;2.13;1.53;;;;;;;5.10;55.29;94659.81;1824999;78;21425;-77
2022/01/30 12:04:06;;;;;;;1.97;1.37;;;;;;;4.96;55.88;94661.30;1825858;78;20982;-76
2022/01/30 12:06:36;;;;;;;3.63;2.13;;;;;;;5.28;55.07;94662.62;1826254;78;21025;-76
2022/01/30 12:09:20;;;;;;;3.73;2.10;;;;;;;6.10;53.35;94645.32;1826118;78;20990;-76
2022/01/30 12:11:51;;;;;;;2.00;1.20;;;;;;;6.26;52.64;94638.06;1826481;78;21522;-77
2022/01/30 12:14:29;;;;;;;1.63;1.23;;;;;;;6.34;52.09;94633.55;1826268;78;20951;-75
2022/01/30 12:17:02;;;;;;;4.83;2.30;;;;;;;6.08;51.59;94635.77;1825892;78;21078;-75
2022/01/30 12:19:45;;;;;;;2.72;1.62;;;;;;;6.39;51.57;94637.39;1826385;78;21045;-75
2022/01/30 12:22:23;;;;;;;2.53;1.50;;;;;;;6.35;50.43;94643.16;1824235;78;21002;-75
2022/01/30 12:25:14;;;;;;;1.50;1.10;;;;;;;6.03;51.38;94638.00;1826357;78;20978;-75
2022/01/30 12:27:48;;;;;;;2.87;1.47;;;;;;;5.80;51.66;94633.11;1825910;78;21065;-77
2022/01/30 12:30:40;;;;;;;2.63;1.50;;;;;;;5.36;52.99;94652.06;1826239;78;20954;-78
2022/01/30 12:33:34;;;;;;;3.17;1.37;;;;;;;5.82;52.89;94652.69;1825969;78;21070;-77
2022/01/30 12:36:06;;;;;;;3.50;2.15;;;;;;;5.50;53.49;94640.11;1826342;78;21025;-76
2022/01/30 12:38:34;;;;;;;2.63;1.30;;;;;;;5.02;54.56;94645.98;1823323;78;21022;-76
2022/01/30 12:41:21;;;;;;;2.30;1.57;;;;;;;4.83;55.37;94644.01;1831918;78;21005;-76
2022/01/30 12:43:58;;;;;;;4.33;1.70;;;;;;;4.91;55.64;94657.87;1832012;78;20994;-77
2022/01/30 12:46:29;;;;;;;3.43;1.57;;;;;;;5.24;55.33;94654.42;1831881;78;21120;-78
2022/01/30 12:49:07;;;;;;;3.73;1.83;;;;;;;5.51;55.33;94658.38;1832048;78;21028;-78
2022/01/30 12:51:37;;;;;;;3.10;1.70;;;;;;;5.62;54.57;94653.88;1831416;78;21026;-78
2022/01/30 12:54:06;;;;;;;2.97;1.90;;;;;;;5.48;54.90;94666.73;1831974;78;21022;-78
2022/01/30 12:56:35;;;;;;;3.80;2.07;;;;;;;5.44;55.44;94660.66;1831953;78;21542;-78
2022/01/30 12:59:07;;;;;;;5.00;1.83;;;;;;;5.68;55.10;94671.23;1831998;78;21029;-75
2022/01/30 13:01:42;;;;;;;5.33;2.07;;;;;;;6.54;52.47;94659.39;1831883;78;20998;-75
2022/01/30 13:04:17;;;;;;;2.90;1.57;;;;;;;6.60;52.20;94661.03;1831899;78;21028;-75
2022/01/30 13:06:48;;;;;;;4.23;1.60;;;;;;;6.54;51.51;94658.53;1831998;78;21041;-75
2022/01/30 13:09:25;;;;;;;5.70;2.00;;;;;;;6.42;51.10;94662.23;1830438;78;21094;-75
2022/01/30 13:11:55;;;;;;;2.97;1.90;;;;;;;5.82;52.19;94675.84;1832038;78;20970;-76
2022/01/30 13:14:26;;;;;;;4.03;1.37;;;;;;;5.34;52.64;94670.83;1831261;78;20993;-76
2022/01/30 13:16:52;;;;;;;4.70;2.20;;;;;;;4.90;54.16;94679.66;1830719;78;21018;-76
2022/01/30 13:19:35;;;;;;;4.63;2.20;;;;;;;4.62;54.90;94686.08;1832011;78;21084;-75
2022/01/30 13:22:12;;;;;;;3.35;1.67;;;;;;;4.37;55.73;94693.28;1832174;78;21474;-77